sensor_id;sensor_type;location;lat;lon;timestamp;P1;durP1;ratioP1;P2;durP2;ratioP2
12725;SDS011;6427;49.754;6.106;2024-02-21T00:00:06;15.77;;;5.77;;
12725;SDS011;6427;49.754;6.106;2024-02-21T00:02:34;16.33;;;7.17;;
12725;SDS011;6427;49.754;6.106;2024-02-21T00:05:02;16.87;;;6.60;;
12725;SDS011;6427;49.754;6.106;2024-02-21T00:07:29;16.23;;;6.00;;
12725;SDS011;6427;49.754;6.106;2024-02-21T00:09:57;13.10;;;6.17;;
12725;SDS011;6427;49.754;6.106;2024-02-21T00:12:24;20.05;;;7.07;;
12725;SDS011;6427;49.754;6.106;2024-02-21T00:14:52;12.40;;;5.60;;
12725;SDS011;6427;49.754;6.106;2024-02-21T00:17:20;17.43;;;5.87;;
12725;SDS011;6427;49.754;6.106;2024-02-21T00:19:48;15.03;;;6.30;;
12725;SDS011;6427;49.754;6.106;2024-02-21T00:22:16;11.37;;;6.03;;
12725;SDS011;6427;49.754;6.106;2024-02-21T00:24:43;19.53;;;6.53;;
12725;SDS011;6427;49.754;6.106;2024-02-21T00:27:11;14.13;;;6.13;;
12725;SDS011;6427;49.754;6.106;2024-02-21T00:29:38;13.90;;;5.47;;
12725;SDS011;6427;49.754;6.106;2024-02-21T00:32:07;17.20;;;6.20;;
12725;SDS011;6427;49.754;6.106;2024-02-21T00:34:34;15.40;;;6.10;;
12725;SDS011;6427;49.754;6.106;2024-02-21T00:37:02;16.80;;;5.87;;
12725;SDS011;6427;49.754;6.106;2024-02-21T00:39:29;11.00;;;5.73;;
12725;SDS011;6427;49.754;6.106;2024-02-21T00:41:57;16.63;;;6.43;;
12725;SDS011;6427;49.754;6.106;2024-02-21T00:44:25;10.40;;;5.87;;
12725;SDS011;6427;49.754;6.106;2024-02-21T00:46:52;15.53;;;6.30;;
12725;SDS011;6427;49.754;6.106;2024-02-21T00:49:20;16.17;;;6.07;;
12725;SDS011;6427;49.754;6.106;2024-02-21T00:51:47;12.73;;;5.97;;
12725;SDS011;6427;49.754;6.106;2024-02-21T00:54:15;16.07;;;6.10;;
12725;SDS011;6427;49.754;6.106;2024-02-21T00:56:43;11.67;;;5.43;;
12725;SDS011;6427;49.754;6.106;2024-02-21T00:59:11;14.63;;;5.67;;
12725;SDS011;6427;49.754;6.106;2024-02-21T01:01:39;14.68;;;7.32;;
12725;SDS011;6427;49.754;6.106;2024-02-21T01:04:07;16.00;;;5.67;;
12725;SDS011;6427;49.754;6.106;2024-02-21T01:06:34;17.53;;;6.80;;
12725;SDS011;6427;49.754;6.106;2024-02-21T01:09:02;16.40;;;5.67;;
12725;SDS011;6427;49.754;6.106;2024-02-21T01:11:30;14.30;;;5.47;;
12725;SDS011;6427;49.754;6.106;2024-02-21T01:13:57;18.37;;;6.57;;
12725;SDS011;6427;49.754;6.106;2024-02-21T01:16:25;13.03;;;5.27;;
12725;SDS011;6427;49.754;6.106;2024-02-21T01:18:52;15.80;;;5.83;;
12725;SDS011;6427;49.754;6.106;2024-02-21T01:21:20;15.25;;;6.87;;
12725;SDS011;6427;49.754;6.106;2024-02-21T01:23:48;14.03;;;6.10;;
12725;SDS011;6427;49.754;6.106;2024-02-21T01:26:16;12.97;;;5.77;;
12725;SDS011;6427;49.754;6.106;2024-02-21T01:28:44;13.63;;;5.83;;
12725;SDS011;6427;49.754;6.106;2024-02-21T01:31:11;14.37;;;5.50;;
12725;SDS011;6427;49.754;6.106;2024-02-21T01:33:39;15.43;;;5.53;;
12725;SDS011;6427;49.754;6.106;2024-02-21T01:36:07;13.60;;;5.63;;
12725;SDS011;6427;49.754;6.106;2024-02-21T01:38:35;13.10;;;4.57;;
12725;SDS011;6427;49.754;6.106;2024-02-21T01:41:03;16.53;;;5.40;;
12725;SDS011;6427;49.754;6.106;2024-02-21T01:43:31;12.77;;;5.43;;
12725;SDS011;6427;49.754;6.106;2024-02-21T01:45:58;12.50;;;4.80;;
12725;SDS011;6427;49.754;6.106;2024-02-21T01:48:26;14.73;;;5.67;;
12725;SDS011;6427;49.754;6.106;2024-02-21T01:50:54;14.85;;;6.28;;
12725;SDS011;6427;49.754;6.106;2024-02-21T01:53:30;17.33;;;6.23;;
12725;SDS011;6427;49.754;6.106;2024-02-21T01:55:58;12.33;;;5.30;;
12725;SDS011;6427;49.754;6.106;2024-02-21T01:58:26;13.77;;;4.60;;
12725;SDS011;6427;49.754;6.106;2024-02-21T02:00:53;12.83;;;5.20;;
12725;SDS011;6427;49.754;6.106;2024-02-21T02:03:21;14.37;;;5.43;;
12725;SDS011;6427;49.754;6.106;2024-02-21T02:05:49;15.10;;;5.00;;
12725;SDS011;6427;49.754;6.106;2024-02-21T02:08:16;15.77;;;4.63;;
12725;SDS011;6427;49.754;6.106;2024-02-21T02:10:44;12.60;;;5.47;;
12725;SDS011;6427;49.754;6.106;2024-02-21T02:13:11;16.00;;;5.97;;
12725;SDS011;6427;49.754;6.106;2024-02-21T02:18:06;12.70;;;4.83;;
12725;SDS011;6427;49.754;6.106;2024-02-21T02:20:34;11.30;;;4.97;;
12725;SDS011;6427;49.754;6.106;2024-02-21T02:23:06;12.63;;;4.70;;
12725;SDS011;6427;49.754;6.106;2024-02-21T02:25:38;18.83;;;5.37;;
12725;SDS011;6427;49.754;6.106;2024-02-21T02:28:06;12.40;;;5.23;;
12725;SDS011;6427;49.754;6.106;2024-02-21T02:30:34;11.23;;;4.97;;
12725;SDS011;6427;49.754;6.106;2024-02-21T02:33:01;16.15;;;6.30;;
12725;SDS011;6427;49.754;6.106;2024-02-21T02:35:28;11.95;;;5.78;;
12725;SDS011;6427;49.754;6.106;2024-02-21T02:37:56;11.77;;;5.53;;
12725;SDS011;6427;49.754;6.106;2024-02-21T02:40:24;11.80;;;4.63;;
12725;SDS011;6427;49.754;6.106;2024-02-21T02:42:52;10.87;;;4.83;;
12725;SDS011;6427;49.754;6.106;2024-02-21T02:45:21;11.10;;;4.53;;
12725;SDS011;6427;49.754;6.106;2024-02-21T02:47:48;10.47;;;4.83;;
12725;SDS011;6427;49.754;6.106;2024-02-21T02:50:15;10.20;;;4.27;;
12725;SDS011;6427;49.754;6.106;2024-02-21T02:52:43;15.10;;;5.47;;
12725;SDS011;6427;49.754;6.106;2024-02-21T02:55:11;12.10;;;4.77;;
12725;SDS011;6427;49.754;6.106;2024-02-21T02:57:38;9.67;;;4.87;;
12725;SDS011;6427;49.754;6.106;2024-02-21T03:00:06;12.83;;;5.10;;
12725;SDS011;6427;49.754;6.106;2024-02-21T03:02:34;12.83;;;6.10;;
12725;SDS011;6427;49.754;6.106;2024-02-21T03:05:02;15.50;;;5.95;;
12725;SDS011;6427;49.754;6.106;2024-02-21T03:07:29;12.90;;;4.93;;
12725;SDS011;6427;49.754;6.106;2024-02-21T03:09:57;10.73;;;4.60;;
12725;SDS011;6427;49.754;6.106;2024-02-21T03:12:25;13.63;;;5.13;;
12725;SDS011;6427;49.754;6.106;2024-02-21T03:14:53;11.90;;;4.80;;
12725;SDS011;6427;49.754;6.106;2024-02-21T03:17:22;14.50;;;4.47;;
12725;SDS011;6427;49.754;6.106;2024-02-21T03:19:49;10.47;;;5.10;;
12725;SDS011;6427;49.754;6.106;2024-02-21T03:22:17;14.67;;;4.93;;
12725;SDS011;6427;49.754;6.106;2024-02-21T03:24:45;15.60;;;5.00;;
12725;SDS011;6427;49.754;6.106;2024-02-21T03:27:13;14.50;;;5.27;;
12725;SDS011;6427;49.754;6.106;2024-02-21T03:29:40;16.27;;;4.77;;
12725;SDS011;6427;49.754;6.106;2024-02-21T03:32:09;16.80;;;5.50;;
12725;SDS011;6427;49.754;6.106;2024-02-21T03:34:36;10.53;;;4.50;;
12725;SDS011;6427;49.754;6.106;2024-02-21T03:37:05;15.87;;;5.20;;
12725;SDS011;6427;49.754;6.106;2024-02-21T03:39:33;16.47;;;5.90;;
12725;SDS011;6427;49.754;6.106;2024-02-21T03:42:01;22.83;;;5.47;;
12725;SDS011;6427;49.754;6.106;2024-02-21T03:44:29;14.07;;;5.85;;
12725;SDS011;6427;49.754;6.106;2024-02-21T03:46:57;13.77;;;5.17;;
12725;SDS011;6427;49.754;6.106;2024-02-21T03:49:24;14.07;;;5.47;;
12725;SDS011;6427;49.754;6.106;2024-02-21T03:51:52;9.50;;;4.80;;
12725;SDS011;6427;49.754;6.106;2024-02-21T03:54:19;14.27;;;4.33;;
12725;SDS011;6427;49.754;6.106;2024-02-21T03:56:47;15.53;;;4.57;;
12725;SDS011;6427;49.754;6.106;2024-02-21T03:59:15;16.17;;;5.27;;
12725;SDS011;6427;49.754;6.106;2024-02-21T04:01:42;12.73;;;4.57;;
12725;SDS011;6427;49.754;6.106;2024-02-21T04:04:10;17.17;;;5.33;;
12725;SDS011;6427;49.754;6.106;2024-02-21T04:06:45;11.53;;;4.57;;
12725;SDS011;6427;49.754;6.106;2024-02-21T04:09:05;13.20;;;5.72;;
12725;SDS011;6427;49.754;6.106;2024-02-21T04:11:32;14.17;;;4.83;;
12725;SDS011;6427;49.754;6.106;2024-02-21T04:14:00;12.57;;;4.73;;
12725;SDS011;6427;49.754;6.106;2024-02-21T04:16:28;16.40;;;4.97;;
12725;SDS011;6427;49.754;6.106;2024-02-21T04:18:55;18.63;;;5.37;;
12725;SDS011;6427;49.754;6.106;2024-02-21T04:21:23;16.50;;;4.97;;
12725;SDS011;6427;49.754;6.106;2024-02-21T04:23:51;15.23;;;4.57;;
12725;SDS011;6427;49.754;6.106;2024-02-21T04:26:19;15.30;;;4.23;;
12725;SDS011;6427;49.754;6.106;2024-02-21T04:28:47;13.97;;;4.97;;
12725;SDS011;6427;49.754;6.106;2024-02-21T04:31:15;18.87;;;5.87;;
12725;SDS011;6427;49.754;6.106;2024-02-21T04:33:42;14.67;;;4.97;;
12725;SDS011;6427;49.754;6.106;2024-02-21T04:36:10;18.07;;;4.97;;
12725;SDS011;6427;49.754;6.106;2024-02-21T04:38:38;17.77;;;4.60;;
12725;SDS011;6427;49.754;6.106;2024-02-21T04:41:06;20.97;;;5.73;;
12725;SDS011;6427;49.754;6.106;2024-02-21T04:43:33;16.90;;;4.40;;
12725;SDS011;6427;49.754;6.106;2024-02-21T04:46:01;20.40;;;4.73;;
12725;SDS011;6427;49.754;6.106;2024-02-21T04:48:29;16.20;;;5.62;;
12725;SDS011;6427;49.754;6.106;2024-02-21T04:50:56;10.10;;;4.40;;
12725;SDS011;6427;49.754;6.106;2024-02-21T04:53:24;17.80;;;4.87;;
12725;SDS011;6427;49.754;6.106;2024-02-21T04:55:52;14.57;;;5.50;;
12725;SDS011;6427;49.754;6.106;2024-02-21T04:58:21;13.67;;;5.00;;
12725;SDS011;6427;49.754;6.106;2024-02-21T05:00:49;13.73;;;5.20;;
12725;SDS011;6427;49.754;6.106;2024-02-21T05:03:17;14.03;;;4.37;;
12725;SDS011;6427;49.754;6.106;2024-02-21T05:05:45;17.95;;;5.57;;
12725;SDS011;6427;49.754;6.106;2024-02-21T05:08:13;10.63;;;4.80;;
12725;SDS011;6427;49.754;6.106;2024-02-21T05:10:40;19.00;;;5.47;;
12725;SDS011;6427;49.754;6.106;2024-02-21T05:13:08;16.47;;;4.30;;
12725;SDS011;6427;49.754;6.106;2024-02-21T05:15:35;18.07;;;5.70;;
12725;SDS011;6427;49.754;6.106;2024-02-21T05:18:04;16.90;;;4.53;;
12725;SDS011;6427;49.754;6.106;2024-02-21T05:20:31;14.23;;;4.73;;
12725;SDS011;6427;49.754;6.106;2024-02-21T05:22:59;15.20;;;4.77;;
12725;SDS011;6427;49.754;6.106;2024-02-21T05:25:27;15.20;;;5.43;;
12725;SDS011;6427;49.754;6.106;2024-02-21T05:27:55;14.95;;;5.62;;
12725;SDS011;6427;49.754;6.106;2024-02-21T05:30:22;16.48;;;5.78;;
12725;SDS011;6427;49.754;6.106;2024-02-21T05:32:50;13.53;;;4.40;;
12725;SDS011;6427;49.754;6.106;2024-02-21T05:35:18;11.43;;;4.80;;
12725;SDS011;6427;49.754;6.106;2024-02-21T05:37:45;16.17;;;6.12;;
12725;SDS011;6427;49.754;6.106;2024-02-21T05:40:13;14.43;;;5.50;;
12725;SDS011;6427;49.754;6.106;2024-02-21T05:42:40;13.70;;;5.30;;
12725;SDS011;6427;49.754;6.106;2024-02-21T05:45:08;13.07;;;5.15;;
12725;SDS011;6427;49.754;6.106;2024-02-21T05:47:36;17.50;;;5.50;;
12725;SDS011;6427;49.754;6.106;2024-02-21T05:50:03;14.00;;;5.47;;
12725;SDS011;6427;49.754;6.106;2024-02-21T05:52:31;14.10;;;5.37;;
12725;SDS011;6427;49.754;6.106;2024-02-21T05:54:59;15.77;;;5.17;;
12725;SDS011;6427;49.754;6.106;2024-02-21T05:57:26;12.10;;;4.67;;
12725;SDS011;6427;49.754;6.106;2024-02-21T05:59:54;15.88;;;6.03;;
12725;SDS011;6427;49.754;6.106;2024-02-21T06:02:21;15.43;;;4.97;;
12725;SDS011;6427;49.754;6.106;2024-02-21T06:04:49;17.57;;;5.17;;
12725;SDS011;6427;49.754;6.106;2024-02-21T06:07:17;10.43;;;4.47;;
12725;SDS011;6427;49.754;6.106;2024-02-21T06:09:44;13.00;;;4.60;;
12725;SDS011;6427;49.754;6.106;2024-02-21T06:12:12;11.13;;;4.67;;
12725;SDS011;6427;49.754;6.106;2024-02-21T06:14:39;15.13;;;4.57;;
12725;SDS011;6427;49.754;6.106;2024-02-21T06:17:08;16.02;;;5.45;;
12725;SDS011;6427;49.754;6.106;2024-02-21T06:19:35;9.20;;;4.80;;
12725;SDS011;6427;49.754;6.106;2024-02-21T06:22:03;15.43;;;6.55;;
12725;SDS011;6427;49.754;6.106;2024-02-21T06:24:30;12.93;;;4.90;;
12725;SDS011;6427;49.754;6.106;2024-02-21T06:26:59;9.77;;;4.60;;
12725;SDS011;6427;49.754;6.106;2024-02-21T06:29:26;10.10;;;4.17;;
12725;SDS011;6427;49.754;6.106;2024-02-21T06:31:54;15.45;;;5.85;;
12725;SDS011;6427;49.754;6.106;2024-02-21T06:34:22;13.97;;;5.07;;
12725;SDS011;6427;49.754;6.106;2024-02-21T06:36:49;8.67;;;4.20;;
12725;SDS011;6427;49.754;6.106;2024-02-21T06:39:17;12.63;;;4.53;;
12725;SDS011;6427;49.754;6.106;2024-02-21T06:41:44;10.70;;;4.50;;
12725;SDS011;6427;49.754;6.106;2024-02-21T06:44:12;10.33;;;4.20;;
12725;SDS011;6427;49.754;6.106;2024-02-21T06:46:40;9.17;;;3.67;;
12725;SDS011;6427;49.754;6.106;2024-02-21T06:49:08;12.90;;;5.35;;
12725;SDS011;6427;49.754;6.106;2024-02-21T06:51:36;12.30;;;5.03;;
12725;SDS011;6427;49.754;6.106;2024-02-21T06:54:04;11.15;;;4.75;;
12725;SDS011;6427;49.754;6.106;2024-02-21T06:56:31;12.03;;;4.53;;
12725;SDS011;6427;49.754;6.106;2024-02-21T06:58:59;9.20;;;4.40;;
12725;SDS011;6427;49.754;6.106;2024-02-21T07:01:27;13.27;;;4.50;;
12725;SDS011;6427;49.754;6.106;2024-02-21T07:03:54;17.37;;;4.47;;
12725;SDS011;6427;49.754;6.106;2024-02-21T07:06:22;12.32;;;5.40;;
12725;SDS011;6427;49.754;6.106;2024-02-21T07:08:49;10.47;;;4.90;;
12725;SDS011;6427;49.754;6.106;2024-02-21T07:11:17;13.97;;;4.63;;
12725;SDS011;6427;49.754;6.106;2024-02-21T07:13:45;16.65;;;5.28;;
12725;SDS011;6427;49.754;6.106;2024-02-21T07:16:12;14.67;;;4.87;;
12725;SDS011;6427;49.754;6.106;2024-02-21T07:18:41;13.20;;;4.77;;
12725;SDS011;6427;49.754;6.106;2024-02-21T07:21:08;12.20;;;4.83;;
12725;SDS011;6427;49.754;6.106;2024-02-21T07:23:36;9.80;;;4.60;;
12725;SDS011;6427;49.754;6.106;2024-02-21T07:26:03;11.27;;;4.53;;
12725;SDS011;6427;49.754;6.106;2024-02-21T07:28:31;13.73;;;4.60;;
12725;SDS011;6427;49.754;6.106;2024-02-21T07:30:59;15.85;;;5.95;;
12725;SDS011;6427;49.754;6.106;2024-02-21T07:33:26;12.50;;;5.07;;
12725;SDS011;6427;49.754;6.106;2024-02-21T07:35:54;13.93;;;5.75;;
12725;SDS011;6427;49.754;6.106;2024-02-21T07:38:21;17.57;;;5.47;;
12725;SDS011;6427;49.754;6.106;2024-02-21T07:40:49;13.20;;;4.77;;
12725;SDS011;6427;49.754;6.106;2024-02-21T07:43:17;13.67;;;5.47;;
12725;SDS011;6427;49.754;6.106;2024-02-21T07:45:45;17.77;;;5.17;;
12725;SDS011;6427;49.754;6.106;2024-02-21T07:48:12;12.93;;;5.67;;
12725;SDS011;6427;49.754;6.106;2024-02-21T07:50:40;15.13;;;5.77;;
12725;SDS011;6427;49.754;6.106;2024-02-21T07:53:08;15.40;;;6.07;;
12725;SDS011;6427;49.754;6.106;2024-02-21T07:55:35;16.27;;;5.47;;
12725;SDS011;6427;49.754;6.106;2024-02-21T07:58:03;12.47;;;5.87;;
12725;SDS011;6427;49.754;6.106;2024-02-21T08:00:30;13.83;;;6.37;;
12725;SDS011;6427;49.754;6.106;2024-02-21T08:02:58;20.13;;;6.37;;
12725;SDS011;6427;49.754;6.106;2024-02-21T08:05:26;18.73;;;6.53;;
12725;SDS011;6427;49.754;6.106;2024-02-21T08:07:54;11.70;;;5.33;;
12725;SDS011;6427;49.754;6.106;2024-02-21T08:10:22;16.63;;;5.90;;
12725;SDS011;6427;49.754;6.106;2024-02-21T08:12:49;18.23;;;6.37;;
12725;SDS011;6427;49.754;6.106;2024-02-21T08:15:17;14.77;;;5.67;;
12725;SDS011;6427;49.754;6.106;2024-02-21T08:17:45;18.40;;;7.53;;
12725;SDS011;6427;49.754;6.106;2024-02-21T08:20:14;12.70;;;5.57;;
12725;SDS011;6427;49.754;6.106;2024-02-21T08:22:41;16.20;;;5.63;;
12725;SDS011;6427;49.754;6.106;2024-02-21T08:25:09;17.40;;;6.03;;
12725;SDS011;6427;49.754;6.106;2024-02-21T08:27:37;21.13;;;5.87;;
12725;SDS011;6427;49.754;6.106;2024-02-21T08:30:04;11.97;;;5.27;;
12725;SDS011;6427;49.754;6.106;2024-02-21T08:32:32;15.10;;;5.70;;
12725;SDS011;6427;49.754;6.106;2024-02-21T08:35:00;10.37;;;4.90;;
12725;SDS011;6427;49.754;6.106;2024-02-21T08:37:28;19.13;;;5.80;;
12725;SDS011;6427;49.754;6.106;2024-02-21T08:39:55;18.67;;;5.70;;
12725;SDS011;6427;49.754;6.106;2024-02-21T08:42:23;14.30;;;5.00;;
12725;SDS011;6427;49.754;6.106;2024-02-21T08:44:50;14.67;;;5.37;;
12725;SDS011;6427;49.754;6.106;2024-02-21T08:47:19;11.40;;;5.37;;
12725;SDS011;6427;49.754;6.106;2024-02-21T08:49:47;15.03;;;5.63;;
12725;SDS011;6427;49.754;6.106;2024-02-21T08:52:15;11.10;;;5.00;;
12725;SDS011;6427;49.754;6.106;2024-02-21T08:54:43;15.52;;;6.78;;
12725;SDS011;6427;49.754;6.106;2024-02-21T08:57:11;18.23;;;6.67;;
12725;SDS011;6427;49.754;6.106;2024-02-21T08:59:38;19.23;;;6.63;;
12725;SDS011;6427;49.754;6.106;2024-02-21T09:02:06;15.60;;;6.33;;
12725;SDS011;6427;49.754;6.106;2024-02-21T09:04:33;11.90;;;5.63;;
12725;SDS011;6427;49.754;6.106;2024-02-21T09:07:01;12.23;;;6.43;;
12725;SDS011;6427;49.754;6.106;2024-02-21T09:09:29;18.90;;;6.43;;
12725;SDS011;6427;49.754;6.106;2024-02-21T09:11:56;11.43;;;5.17;;
12725;SDS011;6427;49.754;6.106;2024-02-21T09:14:24;16.53;;;5.07;;
12725;SDS011;6427;49.754;6.106;2024-02-21T09:16:51;16.37;;;6.20;;
12725;SDS011;6427;49.754;6.106;2024-02-21T09:19:19;17.33;;;5.03;;
12725;SDS011;6427;49.754;6.106;2024-02-21T09:21:47;14.10;;;6.53;;
12725;SDS011;6427;49.754;6.106;2024-02-21T09:24:14;10.10;;;5.37;;
12725;SDS011;6427;49.754;6.106;2024-02-21T09:26:43;10.83;;;4.43;;
12725;SDS011;6427;49.754;6.106;2024-02-21T09:29:10;11.63;;;4.13;;
12725;SDS011;6427;49.754;6.106;2024-02-21T09:31:38;13.68;;;5.60;;
12725;SDS011;6427;49.754;6.106;2024-02-21T09:34:05;17.53;;;5.37;;
12725;SDS011;6427;49.754;6.106;2024-02-21T09:36:33;13.63;;;4.80;;
12725;SDS011;6427;49.754;6.106;2024-02-21T09:39:01;16.97;;;4.50;;
12725;SDS011;6427;49.754;6.106;2024-02-21T09:41:30;12.57;;;4.57;;
12725;SDS011;6427;49.754;6.106;2024-02-21T09:43:57;11.17;;;3.97;;
12725;SDS011;6427;49.754;6.106;2024-02-21T09:46:40;16.08;;;5.20;;
12725;SDS011;6427;49.754;6.106;2024-02-21T09:49:13;16.13;;;4.80;;
12725;SDS011;6427;49.754;6.106;2024-02-21T09:51:38;12.73;;;4.50;;
12725;SDS011;6427;49.754;6.106;2024-02-21T09:54:07;9.77;;;3.93;;
12725;SDS011;6427;49.754;6.106;2024-02-21T09:56:34;13.67;;;4.20;;
12725;SDS011;6427;49.754;6.106;2024-02-21T09:59:01;15.10;;;5.00;;
12725;SDS011;6427;49.754;6.106;2024-02-21T10:01:29;18.40;;;4.67;;
12725;SDS011;6427;49.754;6.106;2024-02-21T10:03:56;14.67;;;4.90;;
12725;SDS011;6427;49.754;6.106;2024-02-21T10:06:25;14.67;;;4.97;;
12725;SDS011;6427;49.754;6.106;2024-02-21T10:08:53;14.33;;;6.10;;
12725;SDS011;6427;49.754;6.106;2024-02-21T10:11:23;15.27;;;4.73;;
12725;SDS011;6427;49.754;6.106;2024-02-21T10:13:50;17.70;;;5.60;;
12725;SDS011;6427;49.754;6.106;2024-02-21T10:16:18;14.10;;;5.57;;
12725;SDS011;6427;49.754;6.106;2024-02-21T10:18:46;15.63;;;4.70;;
12725;SDS011;6427;49.754;6.106;2024-02-21T10:21:13;13.90;;;5.30;;
12725;SDS011;6427;49.754;6.106;2024-02-21T10:23:41;12.57;;;5.00;;
12725;SDS011;6427;49.754;6.106;2024-02-21T10:26:08;14.07;;;5.63;;
12725;SDS011;6427;49.754;6.106;2024-02-21T10:28:36;14.17;;;4.80;;
12725;SDS011;6427;49.754;6.106;2024-02-21T10:31:04;11.82;;;4.75;;
12725;SDS011;6427;49.754;6.106;2024-02-21T10:33:33;12.50;;;3.97;;
12725;SDS011;6427;49.754;6.106;2024-02-21T10:36:09;10.73;;;4.07;;
12725;SDS011;6427;49.754;6.106;2024-02-21T10:38:34;10.30;;;4.75;;
12725;SDS011;6427;49.754;6.106;2024-02-21T10:41:02;13.20;;;3.70;;
12725;SDS011;6427;49.754;6.106;2024-02-21T10:43:30;10.77;;;3.83;;
12725;SDS011;6427;49.754;6.106;2024-02-21T10:45:58;12.30;;;4.62;;
12725;SDS011;6427;49.754;6.106;2024-02-21T10:48:29;12.40;;;4.00;;
12725;SDS011;6427;49.754;6.106;2024-02-21T10:50:55;12.87;;;3.40;;
12725;SDS011;6427;49.754;6.106;2024-02-21T10:53:29;12.03;;;3.23;;
12725;SDS011;6427;49.754;6.106;2024-02-21T10:56:02;13.33;;;3.40;;
12725;SDS011;6427;49.754;6.106;2024-02-21T10:58:24;10.33;;;3.67;;
12725;SDS011;6427;49.754;6.106;2024-02-21T11:00:51;14.10;;;3.53;;
12725;SDS011;6427;49.754;6.106;2024-02-21T11:03:19;11.12;;;3.70;;
12725;SDS011;6427;49.754;6.106;2024-02-21T11:05:46;10.17;;;3.40;;
12725;SDS011;6427;49.754;6.106;2024-02-21T11:08:15;7.03;;;3.30;;
12725;SDS011;6427;49.754;6.106;2024-02-21T11:10:45;10.03;;;3.13;;
12725;SDS011;6427;49.754;6.106;2024-02-21T11:13:10;9.60;;;3.10;;
12725;SDS011;6427;49.754;6.106;2024-02-21T11:15:38;10.27;;;3.43;;
12725;SDS011;6427;49.754;6.106;2024-02-21T11:18:05;11.70;;;3.40;;
12725;SDS011;6427;49.754;6.106;2024-02-21T11:20:37;10.98;;;3.92;;
12725;SDS011;6427;49.754;6.106;2024-02-21T11:23:04;14.27;;;3.87;;
12725;SDS011;6427;49.754;6.106;2024-02-21T11:25:32;15.97;;;4.30;;
12725;SDS011;6427;49.754;6.106;2024-02-21T11:28:03;13.43;;;4.45;;
12725;SDS011;6427;49.754;6.106;2024-02-21T11:30:32;8.70;;;3.10;;
12725;SDS011;6427;49.754;6.106;2024-02-21T11:33:02;8.07;;;3.40;;
12725;SDS011;6427;49.754;6.106;2024-02-21T11:35:31;11.20;;;3.33;;
12725;SDS011;6427;49.754;6.106;2024-02-21T11:38:08;8.50;;;3.57;;
12725;SDS011;6427;49.754;6.106;2024-02-21T11:40:38;10.15;;;4.10;;
12725;SDS011;6427;49.754;6.106;2024-02-21T11:43:06;12.00;;;3.70;;
12725;SDS011;6427;49.754;6.106;2024-02-21T11:45:33;8.37;;;3.53;;
12725;SDS011;6427;49.754;6.106;2024-02-21T11:48:02;4.90;;;3.07;;
12725;SDS011;6427;49.754;6.106;2024-02-21T11:50:29;8.87;;;3.03;;
12725;SDS011;6427;49.754;6.106;2024-02-21T11:52:57;10.73;;;3.80;;
12725;SDS011;6427;49.754;6.106;2024-02-21T11:55:24;13.93;;;3.80;;
12725;SDS011;6427;49.754;6.106;2024-02-21T11:57:52;8.80;;;3.80;;
12725;SDS011;6427;49.754;6.106;2024-02-21T12:00:20;11.93;;;4.22;;
12725;SDS011;6427;49.754;6.106;2024-02-21T12:02:50;12.70;;;4.40;;
12725;SDS011;6427;49.754;6.106;2024-02-21T12:05:16;10.43;;;3.90;;
12725;SDS011;6427;49.754;6.106;2024-02-21T12:07:44;8.13;;;3.77;;
12725;SDS011;6427;49.754;6.106;2024-02-21T12:10:12;9.80;;;4.18;;
12725;SDS011;6427;49.754;6.106;2024-02-21T12:12:39;11.30;;;3.90;;
12725;SDS011;6427;49.754;6.106;2024-02-21T12:15:07;11.90;;;3.80;;
12725;SDS011;6427;49.754;6.106;2024-02-21T12:17:35;10.33;;;4.00;;
12725;SDS011;6427;49.754;6.106;2024-02-21T12:20:05;12.33;;;3.53;;
12725;SDS011;6427;49.754;6.106;2024-02-21T12:22:36;10.47;;;3.37;;
12725;SDS011;6427;49.754;6.106;2024-02-21T12:25:04;10.27;;;3.27;;
12725;SDS011;6427;49.754;6.106;2024-02-21T12:27:32;9.83;;;3.30;;
12725;SDS011;6427;49.754;6.106;2024-02-21T12:30:00;12.43;;;5.10;;
12725;SDS011;6427;49.754;6.106;2024-02-21T12:32:28;14.27;;;4.20;;
12725;SDS011;6427;49.754;6.106;2024-02-21T12:34:57;21.07;;;4.30;;
12725;SDS011;6427;49.754;6.106;2024-02-21T12:37:25;8.27;;;3.33;;
12725;SDS011;6427;49.754;6.106;2024-02-21T12:39:52;9.40;;;3.58;;
12725;SDS011;6427;49.754;6.106;2024-02-21T12:42:20;6.83;;;3.20;;
12725;SDS011;6427;49.754;6.106;2024-02-21T12:44:47;9.83;;;3.23;;
12725;SDS011;6427;49.754;6.106;2024-02-21T12:47:15;11.50;;;3.47;;
12725;SDS011;6427;49.754;6.106;2024-02-21T12:49:43;12.40;;;4.20;;
12725;SDS011;6427;49.754;6.106;2024-02-21T12:52:11;8.63;;;3.23;;
12725;SDS011;6427;49.754;6.106;2024-02-21T12:54:38;13.80;;;3.23;;
12725;SDS011;6427;49.754;6.106;2024-02-21T12:57:06;9.67;;;3.73;;
12725;SDS011;6427;49.754;6.106;2024-02-21T12:59:33;7.47;;;2.70;;
12725;SDS011;6427;49.754;6.106;2024-02-21T13:02:01;12.00;;;3.30;;
12725;SDS011;6427;49.754;6.106;2024-02-21T13:04:29;6.37;;;2.97;;
12725;SDS011;6427;49.754;6.106;2024-02-21T13:06:56;9.10;;;3.00;;
12725;SDS011;6427;49.754;6.106;2024-02-21T13:09:24;11.70;;;3.20;;
12725;SDS011;6427;49.754;6.106;2024-02-21T13:11:51;8.00;;;3.07;;
12725;SDS011;6427;49.754;6.106;2024-02-21T13:14:19;12.63;;;3.10;;
12725;SDS011;6427;49.754;6.106;2024-02-21T13:16:47;9.95;;;3.20;;
12725;SDS011;6427;49.754;6.106;2024-02-21T13:19:15;9.47;;;2.27;;
12725;SDS011;6427;49.754;6.106;2024-02-21T13:21:42;12.00;;;3.50;;
12725;SDS011;6427;49.754;6.106;2024-02-21T13:24:10;10.83;;;3.20;;
12725;SDS011;6427;49.754;6.106;2024-02-21T13:26:38;6.07;;;2.73;;
12725;SDS011;6427;49.754;6.106;2024-02-21T13:29:05;6.80;;;2.20;;
12725;SDS011;6427;49.754;6.106;2024-02-21T13:31:33;7.83;;;2.70;;
12725;SDS011;6427;49.754;6.106;2024-02-21T13:34:01;5.43;;;2.37;;
12725;SDS011;6427;49.754;6.106;2024-02-21T13:36:28;10.27;;;2.67;;
12725;SDS011;6427;49.754;6.106;2024-02-21T13:38:56;11.27;;;2.67;;
12725;SDS011;6427;49.754;6.106;2024-02-21T13:41:24;8.30;;;3.17;;
12725;SDS011;6427;49.754;6.106;2024-02-21T13:43:52;7.17;;;2.80;;
12725;SDS011;6427;49.754;6.106;2024-02-21T13:46:19;6.67;;;2.17;;
12725;SDS011;6427;49.754;6.106;2024-02-21T13:48:47;8.60;;;2.80;;
12725;SDS011;6427;49.754;6.106;2024-02-21T13:51:15;9.07;;;2.50;;
12725;SDS011;6427;49.754;6.106;2024-02-21T13:53:42;6.57;;;2.40;;
12725;SDS011;6427;49.754;6.106;2024-02-21T13:56:10;9.07;;;3.15;;
12725;SDS011;6427;49.754;6.106;2024-02-21T13:58:37;10.10;;;2.87;;
12725;SDS011;6427;49.754;6.106;2024-02-21T14:01:05;9.33;;;3.00;;
12725;SDS011;6427;49.754;6.106;2024-02-21T14:03:33;7.93;;;2.50;;
12725;SDS011;6427;49.754;6.106;2024-02-21T14:06:00;3.77;;;2.20;;
12725;SDS011;6427;49.754;6.106;2024-02-21T14:08:28;5.70;;;2.40;;
12725;SDS011;6427;49.754;6.106;2024-02-21T14:10:55;6.37;;;2.53;;
12725;SDS011;6427;49.754;6.106;2024-02-21T14:13:23;6.73;;;3.03;;
12725;SDS011;6427;49.754;6.106;2024-02-21T14:15:51;7.17;;;2.80;;
12725;SDS011;6427;49.754;6.106;2024-02-21T14:18:18;6.73;;;2.67;;
12725;SDS011;6427;49.754;6.106;2024-02-21T14:20:46;8.77;;;2.30;;
12725;SDS011;6427;49.754;6.106;2024-02-21T14:23:13;8.23;;;2.50;;
12725;SDS011;6427;49.754;6.106;2024-02-21T14:25:42;7.95;;;2.80;;
12725;SDS011;6427;49.754;6.106;2024-02-21T14:28:09;8.77;;;2.90;;
12725;SDS011;6427;49.754;6.106;2024-02-21T14:30:37;10.03;;;3.00;;
12725;SDS011;6427;49.754;6.106;2024-02-21T14:33:04;7.50;;;3.07;;
12725;SDS011;6427;49.754;6.106;2024-02-21T14:35:32;7.10;;;2.13;;
12725;SDS011;6427;49.754;6.106;2024-02-21T14:38:00;7.97;;;2.70;;
12725;SDS011;6427;49.754;6.106;2024-02-21T14:40:28;7.20;;;2.03;;
12725;SDS011;6427;49.754;6.106;2024-02-21T14:42:56;9.38;;;2.83;;
12725;SDS011;6427;49.754;6.106;2024-02-21T14:45:25;9.03;;;2.57;;
12725;SDS011;6427;49.754;6.106;2024-02-21T14:47:52;7.47;;;2.57;;
12725;SDS011;6427;49.754;6.106;2024-02-21T14:50:20;10.77;;;2.63;;
12725;SDS011;6427;49.754;6.106;2024-02-21T14:52:47;9.03;;;2.60;;
12725;SDS011;6427;49.754;6.106;2024-02-21T14:55:16;8.43;;;2.30;;